Time;durP1;ratioP1;P1;durP2;ratioP2;P2;SDS_P1;SDS_P2;PMS_P1;PMS_P2;Temp;Humidity;BMP_temperature;BMP_pressure;BME280_temperature;BME280_humidity;BME280_pressure;Samples;Min_cycle;Max_cycle;Signal;HPM_P1;HPM_P2
2022/04/18 00:02:09;;;;;;;29.67;18.77;;;8.10;93.20;;;;;;5037039;28;20056;-80
2022/04/18 00:04:35;;;;;;;28.40;18.77;;;8.10;93.70;;;;;;5036748;28;20036;-80
2022/04/18 00:07:02;;;;;;;25.70;18.60;;;8.10;94.10;;;;;;5018107;28;20047;-79
2022/04/18 00:09:33;;;;;;;28.67;19.30;;;8.10;94.60;;;;;;5001349;28;20033;-80
2022/04/18 00:12:00;;;;;;;28.90;19.07;;;8.00;94.90;;;;;;5053640;28;20060;-79
2022/04/18 00:14:26;;;;;;;28.70;18.90;;;7.90;95.40;;;;;;5018401;28;20515;-80
2022/04/18 00:16:53;;;;;;;24.33;17.47;;;7.90;96.50;;;;;;5030231;28;20116;-81
2022/04/18 00:19:19;;;;;;;26.20;18.33;;;8.00;95.70;;;;;;5048353;28;20194;-80
2022/04/18 00:21:45;;;;;;;26.30;18.57;;;7.90;95.70;;;;;;5036072;28;20120;-80
2022/04/18 00:24:11;;;;;;;27.00;18.37;;;7.90;96.00;;;;;;5014521;28;20040;-80
2022/04/18 00:26:42;;;;;;;25.33;17.77;;;7.90;95.80;;;;;;5016872;28;20373;-80
2022/04/18 00:29:07;;;;;;;26.47;18.23;;;7.90;97.10;;;;;;5030393;28;20461;-80
2022/04/18 00:31:33;;;;;;;26.57;18.30;;;7.80;95.60;;;;;;5025453;28;20128;-80
2022/04/18 00:33:59;;;;;;;27.40;18.03;;;7.90;96.50;;;;;;4996016;28;20542;-80
2022/04/18 00:36:25;;;;;;;24.50;17.50;;;7.80;96.40;;;;;;5023363;28;20662;-80
2022/04/18 00:38:50;;;;;;;24.17;17.33;;;7.70;97.30;;;;;;5000052;28;20041;-80
2022/04/18 00:41:16;;;;;;;28.17;16.70;;;7.80;97.40;;;;;;5039668;28;20117;-80
2022/04/18 00:43:43;;;;;;;29.57;17.77;;;7.80;98.30;;;;;;5026100;28;20041;-80
2022/04/18 00:46:10;;;;;;;25.13;17.40;;;7.80;97.80;;;;;;5034130;28;20045;-80
2022/04/18 00:48:36;;;;;;;27.17;18.13;;;7.80;98.30;;;;;;5018672;28;20044;-80
2022/04/18 00:51:04;;;;;;;23.70;16.63;;;7.70;99.30;;;;;;5035152;28;20062;-80
2022/04/18 00:53:31;;;;;;;24.47;17.40;;;7.70;99.90;;;;;;5016311;28;20663;-80
2022/04/18 00:55:58;;;;;;;22.13;16.50;;;7.70;99.90;;;;;;5034489;28;20037;-80
2022/04/18 00:58:24;;;;;;;25.17;16.70;;;7.60;99.90;;;;;;5014698;28;20054;-79
2022/04/18 01:00:50;;;;;;;23.13;16.43;;;7.50;99.90;;;;;;5030931;28;20476;-80
2022/04/18 01:03:17;;;;;;;25.50;17.13;;;7.50;99.90;;;;;;5039274;28;20393;-80
2022/04/18 01:05:43;;;;;;;24.93;17.20;;;7.50;99.90;;;;;;4999195;28;20136;-80
2022/04/18 01:08:09;;;;;;;22.00;16.17;;;7.40;99.90;;;;;;5024130;28;20045;-80
2022/04/18 01:10:36;;;;;;;22.77;16.50;;;7.40;99.90;;;;;;5010631;28;20405;-80
2022/04/18 01:13:01;;;;;;;23.83;16.73;;;7.30;99.90;;;;;;4993682;28;20076;-80
2022/04/18 01:15:27;;;;;;;22.43;16.60;;;7.30;99.90;;;;;;5009671;28;20072;-80
2022/04/18 01:17:53;;;;;;;23.90;16.53;;;7.30;99.90;;;;;;5004628;28;20549;-80
2022/04/18 01:20:18;;;;;;;22.93;16.67;;;7.20;99.90;;;;;;5023517;28;20042;-80
2022/04/18 01:22:45;;;;;;;23.00;16.47;;;7.20;99.90;;;;;;5009315;28;20038;-80
2022/04/18 01:30:40;;;;;;;22.70;15.57;;;7.10;99.90;;;;;;5051369;28;20045;-80
2022/04/18 01:33:06;;;;;;;25.47;16.17;;;7.00;99.90;;;;;;5014157;28;20537;-80
2022/04/18 01:35:32;;;;;;;24.00;16.50;;;7.00;99.90;;;;;;5016683;28;20114;-80
2022/04/18 01:37:57;;;;;;;26.17;17.60;;;7.00;99.90;;;;;;5021625;28;20065;-80
2022/04/18 01:40:23;;;;;;;24.97;16.47;;;6.90;99.90;;;;;;5014889;28;20047;-80
2022/04/18 01:42:49;;;;;;;23.03;16.63;;;6.90;99.90;;;;;;5023371;28;20721;-80
2022/04/18 01:45:14;;;;;;;28.43;17.13;;;6.90;99.90;;;;;;5001086;28;20042;-80
2022/04/18 01:47:40;;;;;;;23.13;16.77;;;6.80;99.90;;;;;;5035608;28;20037;-79
2022/04/18 01:50:07;;;;;;;23.87;16.63;;;6.80;99.90;;;;;;5015046;28;20484;-79
2022/04/18 01:52:32;;;;;;;24.77;17.17;;;6.70;99.90;;;;;;5034090;28;20064;-80
2022/04/18 01:54:58;;;;;;;22.17;16.00;;;6.70;99.90;;;;;;5019796;28;20049;-80
2022/04/18 01:57:24;;;;;;;24.27;17.20;;;6.70;99.90;;;;;;4997806;28;20059;-80
2022/04/18 01:59:49;;;;;;;25.97;16.80;;;6.70;99.90;;;;;;5039213;28;20484;-80
2022/04/18 02:02:15;;;;;;;25.57;17.20;;;6.70;99.90;;;;;;5026648;28;20037;-80
2022/04/18 02:04:41;;;;;;;24.50;16.77;;;6.50;99.90;;;;;;5011409;28;20484;-80
2022/04/18 02:07:09;;;;;;;26.57;17.37;;;6.50;99.90;;;;;;4990624;28;20049;-80
2022/04/18 02:09:35;;;;;;;23.33;16.00;;;6.50;99.90;;;;;;5034190;28;20051;-80
2022/04/18 02:12:01;;;;;;;23.80;16.53;;;6.40;99.90;;;;;;5014412;28;20128;-80
2022/04/18 02:14:27;;;;;;;23.73;16.83;;;6.40;99.90;;;;;;5028841;28;20053;-80
2022/04/18 02:16:53;;;;;;;24.80;16.33;;;6.30;99.90;;;;;;5007529;28;20103;-80
2022/04/18 02:19:18;;;;;;;23.93;16.63;;;6.30;99.90;;;;;;5004356;28;20054;-80
2022/04/18 02:21:44;;;;;;;21.60;15.27;;;6.20;99.90;;;;;;5033731;28;20033;-80
2022/04/18 02:24:10;;;;;;;24.37;17.00;;;6.10;99.90;;;;;;4999887;28;20129;-80
2022/04/18 02:26:35;;;;;;;25.83;17.10;;;6.00;99.90;;;;;;5006350;28;20120;-80
2022/04/18 02:29:01;;;;;;;25.83;16.83;;;5.90;99.90;;;;;;5003041;28;20041;-80
2022/04/18 02:31:27;;;;;;;23.77;15.83;;;5.80;99.90;;;;;;5032422;28;20049;-79
2022/04/18 02:33:52;;;;;;;23.80;16.67;;;5.70;99.90;;;;;;5012279;28;20045;-78
2022/04/18 02:36:18;;;;;;;26.87;17.30;;;5.60;99.90;;;;;;5020754;28;20043;-79
2022/04/18 02:38:44;;;;;;;24.23;17.00;;;5.70;99.90;;;;;;5044775;28;20025;-79
2022/04/18 02:41:09;;;;;;;26.90;17.27;;;5.60;99.90;;;;;;5014377;28;20131;-80
2022/04/18 02:43:35;;;;;;;23.23;16.70;;;5.60;99.90;;;;;;4990701;28;20037;-80
2022/04/18 02:46:01;;;;;;;28.30;16.63;;;5.60;99.90;;;;;;5023573;28;20037;-79
2022/04/18 02:48:27;;;;;;;23.50;16.60;;;5.50;99.90;;;;;;5000355;28;20160;-80
2022/04/18 02:50:52;;;;;;;22.83;16.93;;;5.40;99.90;;;;;;5031613;28;20044;-80
2022/04/18 02:53:18;;;;;;;23.83;16.87;;;5.40;99.90;;;;;;5008882;28;20403;-80
2022/04/18 02:55:44;;;;;;;26.67;17.63;;;5.40;99.90;;;;;;5031496;28;20404;-80
2022/04/18 02:58:09;;;;;;;23.03;15.70;;;5.40;99.90;;;;;;5008951;28;20037;-79
2022/04/18 03:00:35;;;;;;;25.73;17.17;;;5.40;99.90;;;;;;5019706;28;20032;-80
2022/04/18 03:03:01;;;;;;;24.63;16.10;;;5.40;99.90;;;;;;4992135;28;20557;-80
2022/04/18 03:05:27;;;;;;;26.70;17.17;;;5.40;99.90;;;;;;5020433;28;20040;-79
2022/04/18 03:07:52;;;;;;;23.90;16.90;;;5.30;99.90;;;;;;5001618;28;20037;-80
2022/04/18 03:11:02;;;;;;;29.67;16.87;;;5.30;99.90;;;;;;5012296;28;20052;-79
2022/04/18 03:13:04;;;;;;;23.57;16.57;;;5.30;99.90;;;;;;5024994;28;20137;-79
2022/04/18 03:15:29;;;;;;;23.40;15.60;;;5.30;99.90;;;;;;5019842;28;20079;-80
2022/04/18 03:17:55;;;;;;;22.10;16.23;;;5.30;99.90;;;;;;5022481;28;20037;-80
2022/04/18 03:20:21;;;;;;;25.47;17.33;;;5.30;99.90;;;;;;5024741;28;20043;-80
2022/04/18 03:22:46;;;;;;;23.73;16.23;;;5.30;99.90;;;;;;5041972;28;20095;-79
2022/04/18 03:25:12;;;;;;;23.87;15.57;;;5.30;99.90;;;;;;5012985;28;20074;-79
2022/04/18 03:27:38;;;;;;;24.97;15.53;;;5.10;99.90;;;;;;5043155;28;20041;-80
2022/04/18 03:30:05;;;;;;;24.37;16.53;;;5.10;99.90;;;;;;4996152;28;20044;-80
2022/04/18 03:32:31;;;;;;;23.43;16.03;;;5.00;99.90;;;;;;5004399;28;20152;-80
2022/04/18 03:34:57;;;;;;;22.73;15.80;;;5.00;99.90;;;;;;5019896;28;20465;-80
2022/04/18 03:40:07;;;;;;;26.67;16.43;;;5.00;99.90;;;;;;5035067;28;20051;-80
2022/04/18 03:42:33;;;;;;;23.80;16.47;;;5.00;99.90;;;;;;4998124;23;20053;-80
2022/04/18 03:45:02;;;;;;;22.73;16.00;;;5.00;99.90;;;;;;5012428;28;20052;-80
2022/04/18 03:47:28;;;;;;;21.77;15.00;;;5.00;99.90;;;;;;5010031;28;20042;-80
2022/04/18 03:49:54;;;;;;;26.47;16.63;;;4.90;99.90;;;;;;4991679;28;20429;-80
2022/04/18 03:52:21;;;;;;;22.07;15.50;;;4.80;99.90;;;;;;5008515;28;20053;-80
2022/04/18 03:54:46;;;;;;;24.47;16.23;;;4.90;99.90;;;;;;4995691;28;20044;-80
2022/04/18 03:57:14;;;;;;;26.23;17.00;;;4.80;99.90;;;;;;4986548;28;20066;-80
2022/04/18 03:59:40;;;;;;;25.47;17.10;;;4.80;99.90;;;;;;4988577;28;20428;-80
2022/04/18 04:02:06;;;;;;;26.60;17.53;;;4.90;99.90;;;;;;4997236;28;20050;-80
2022/04/18 04:04:32;;;;;;;25.10;16.93;;;4.90;99.90;;;;;;4995136;28;20054;-80
2022/04/18 04:06:58;;;;;;;23.10;16.07;;;4.90;99.90;;;;;;4989615;28;20105;-80
2022/04/18 04:09:24;;;;;;;22.47;15.70;;;4.90;99.90;;;;;;4988667;28;20053;-80
2022/04/18 04:11:51;;;;;;;27.50;18.00;;;4.90;99.90;;;;;;4994168;28;20042;-80
2022/04/18 04:14:18;;;;;;;25.13;17.83;;;4.90;99.90;;;;;;4992943;28;20050;-80
2022/04/18 04:16:44;;;;;;;23.40;16.80;;;4.90;99.90;;;;;;4973257;28;20049;-80
2022/04/18 04:19:10;;;;;;;27.93;19.27;;;4.90;99.90;;;;;;4961130;28;20034;-80
2022/04/18 04:21:35;;;;;;;26.07;18.23;;;4.90;99.90;;;;;;4987534;28;20038;-80
2022/04/18 04:24:02;;;;;;;26.13;17.03;;;4.90;99.90;;;;;;4977109;28;20495;-80
2022/04/18 04:26:29;;;;;;;29.60;18.67;;;4.90;99.90;;;;;;4993272;28;20119;-80
2022/04/18 04:28:55;;;;;;;25.33;16.83;;;4.90;99.90;;;;;;5005456;28;20034;-80
2022/04/18 04:31:21;;;;;;;26.47;17.53;;;4.90;99.90;;;;;;4993225;28;20121;-80
2022/04/18 04:33:46;;;;;;;26.80;18.83;;;4.90;99.90;;;;;;4982015;28;20179;-79
2022/04/18 04:36:12;;;;;;;31.70;17.27;;;4.90;99.90;;;;;;4982516;28;20046;-79
2022/04/18 04:38:38;;;;;;;27.60;17.07;;;4.90;99.90;;;;;;5002311;28;20038;-80
2022/04/18 04:41:04;;;;;;;23.73;17.17;;;4.90;99.90;;;;;;4995909;28;20481;-79
2022/04/18 04:43:30;;;;;;;24.97;17.13;;;4.80;99.90;;;;;;5009474;28;20058;-79
2022/04/18 04:46:00;;;;;;;27.07;18.33;;;4.90;99.90;;;;;;4977026;28;20057;-79
2022/04/18 04:48:26;;;;;;;25.57;16.00;;;4.90;99.90;;;;;;4993150;28;20043;-80
2022/04/18 04:50:52;;;;;;;22.03;16.17;;;4.80;99.90;;;;;;4993522;28;20092;-80
2022/04/18 04:53:18;;;;;;;24.87;16.90;;;4.90;99.90;;;;;;4995381;28;20050;-79
2022/04/18 04:55:44;;;;;;;24.20;16.90;;;4.80;99.90;;;;;;4994954;28;20038;-80
2022/04/18 04:58:11;;;;;;;23.30;16.47;;;4.80;99.90;;;;;;4993547;28;20038;-80
2022/04/18 05:00:37;;;;;;;21.37;14.63;;;4.80;99.90;;;;;;5003927;28;20042;-80
2022/04/18 05:03:04;;;;;;;24.30;15.00;;;4.90;99.90;;;;;;4996220;28;20042;-79
2022/04/18 05:05:29;;;;;;;22.73;15.50;;;4.90;99.90;;;;;;4986668;28;20121;-80
2022/04/18 05:07:55;;;;;;;23.87;15.57;;;5.00;99.90;;;;;;4977299;28;20556;-79
2022/04/18 05:10:21;;;;;;;23.80;15.63;;;5.00;99.90;;;;;;5009448;28;20114;-79
2022/04/18 05:12:47;;;;;;;22.37;14.53;;;5.10;99.90;;;;;;4978676;28;20124;-79
2022/04/18 05:15:13;;;;;;;23.27;15.77;;;5.10;99.90;;;;;;4975745;28;20057;-79
2022/04/18 05:17:39;;;;;;;22.60;14.97;;;5.20;99.90;;;;;;4992657;28;20034;-79
2022/04/18 05:20:05;;;;;;;21.23;14.97;;;5.20;99.90;;;;;;4996328;28;20037;-80
2022/04/18 05:22:31;;;;;;;22.67;15.83;;;5.30;99.90;;;;;;4982497;28;20483;-79
2022/04/18 05:24:58;;;;;;;25.37;14.97;;;5.30;99.90;;;;;;4978262;28;20043;-80
2022/04/18 05:27:24;;;;;;;21.57;13.70;;;5.40;99.90;;;;;;5001426;28;20046;-80
2022/04/18 05:29:50;;;;;;;21.33;14.50;;;5.40;99.90;;;;;;4992542;28;20061;-80
2022/04/18 05:32:16;;;;;;;19.97;13.80;;;5.50;99.90;;;;;;4995808;28;20042;-79
2022/04/18 05:34:42;;;;;;;20.67;13.97;;;5.60;99.90;;;;;;4988420;28;20042;-80
2022/04/18 05:37:09;;;;;;;22.87;14.40;;;5.70;99.90;;;;;;4977444;28;20465;-80
2022/04/18 05:39:35;;;;;;;19.17;13.47;;;5.80;99.90;;;;;;4984738;28;20046;-80
2022/04/18 05:42:01;;;;;;;19.77;13.57;;;5.90;99.90;;;;;;4990660;28;20076;-80
2022/04/18 05:44:27;;;;;;;19.80;13.17;;;6.00;99.90;;;;;;4995411;28;20060;-80
2022/04/18 05:46:52;;;;;;;20.03;13.70;;;6.10;99.90;;;;;;4975514;28;20034;-80
2022/04/18 05:49:18;;;;;;;16.77;12.57;;;6.20;99.90;;;;;;5002562;28;20074;-78
2022/04/18 05:51:44;;;;;;;20.40;13.07;;;6.30;99.90;;;;;;5003127;28;20358;-77
2022/04/18 05:54:10;;;;;;;18.13;13.40;;;6.40;99.90;;;;;;5009549;28;20045;-77
2022/04/18 05:56:36;;;;;;;21.33;13.43;;;6.60;99.90;;;;;;5008597;28;20046;-78
2022/04/18 05:59:02;;;;;;;19.37;12.97;;;6.60;99.90;;;;;;4975096;28;20052;-77
2022/04/18 06:01:29;;;;;;;20.07;13.73;;;6.70;99.90;;;;;;5009826;28;20046;-77
2022/04/18 06:03:55;;;;;;;18.97;12.93;;;6.80;99.90;;;;;;4993327;28;20392;-77
2022/04/18 06:06:21;;;;;;;21.07;13.47;;;6.80;99.90;;;;;;4993270;28;20115;-78
2022/04/18 06:08:47;;;;;;;21.53;13.53;;;6.90;99.90;;;;;;4986899;28;20073;-78
2022/04/18 06:11:13;;;;;;;19.40;12.67;;;7.00;99.90;;;;;;5026190;28;20131;-77
2022/04/18 06:13:39;;;;;;;20.07;12.47;;;7.10;99.90;;;;;;4977051;28;20042;-77
2022/04/18 06:16:06;;;;;;;18.30;12.93;;;7.10;99.90;;;;;;4997177;28;21300;-77
2022/04/18 06:18:32;;;;;;;20.43;12.10;;;7.20;99.90;;;;;;4956809;28;20089;-77
2022/04/18 06:20:58;;;;;;;15.70;11.80;;;7.30;99.90;;;;;;4952098;28;20045;-77
2022/04/18 06:23:23;;;;;;;17.53;12.30;;;7.30;99.90;;;;;;4988147;28;20444;-77
2022/04/18 06:25:49;;;;;;;18.57;12.60;;;7.40;99.90;;;;;;4953929;28;20062;-78
2022/04/18 06:28:15;;;;;;;19.67;12.33;;;7.50;99.90;;;;;;4967220;28;20051;-78
2022/04/18 06:30:41;;;;;;;21.53;12.77;;;7.60;99.90;;;;;;4988345;28;20066;-77
2022/04/18 06:33:12;;;;;;;15.63;11.20;;;7.70;99.90;;;;;;5007360;28;20162;-77
2022/04/18 06:35:38;;;;;;;15.83;11.20;;;7.90;99.90;;;;;;4953491;28;20070;-78
2022/04/18 06:38:05;;;;;;;18.03;12.07;;;8.00;99.90;;;;;;5000876;28;20121;-78
2022/04/18 06:40:31;;;;;;;19.20;12.40;;;8.10;99.90;;;;;;5003180;28;20847;-78
2022/04/18 06:42:57;;;;;;;18.67;12.50;;;8.20;99.90;;;;;;4983727;28;20126;-78
2022/04/18 06:45:24;;;;;;;17.93;11.87;;;8.30;99.90;;;;;;4975296;28;20041;-78
2022/04/18 06:47:49;;;;;;;16.17;10.87;;;8.40;99.90;;;;;;4987332;28;20420;-77
2022/04/18 06:50:15;;;;;;;15.07;11.47;;;8.60;99.90;;;;;;4969077;28;20146;-77
2022/04/18 06:52:44;;;;;;;16.13;11.67;;;8.70;99.90;;;;;;5000416;28;20069;-77
2022/04/18 06:55:10;;;;;;;17.63;11.73;;;8.80;99.90;;;;;;5001752;28;20144;-78
2022/04/18 06:57:36;;;;;;;16.10;11.17;;;9.00;99.90;;;;;;4986569;28;20076;-77
2022/04/18 07:00:05;;;;;;;15.20;11.13;;;9.10;99.90;;;;;;4966300;28;20408;-77
2022/04/18 07:02:32;;;;;;;13.63;10.67;;;9.30;99.90;;;;;;4982682;28;20048;-77
2022/04/18 07:04:57;;;;;;;16.70;10.97;;;9.40;99.90;;;;;;4993421;28;20056;-77
2022/04/18 07:07:23;;;;;;;11.90;9.77;;;9.60;99.90;;;;;;4985773;28;20121;-78
2022/04/18 07:09:49;;;;;;;16.23;10.83;;;9.70;99.90;;;;;;4992425;28;20092;-78
2022/04/18 07:12:19;;;;;;;13.90;9.97;;;9.80;99.90;;;;;;4965620;28;20517;-78
2022/04/18 07:14:44;;;;;;;14.83;9.97;;;9.90;99.90;;;;;;4980019;28;20046;-77
2022/04/18 07:17:10;;;;;;;14.83;10.07;;;10.10;99.90;;;;;;4978773;28;20049;-78
2022/04/18 07:19:36;;;;;;;13.90;10.23;;;10.20;99.90;;;;;;4974833;28;20392;-77
2022/04/18 07:22:02;;;;;;;13.73;10.43;;;10.30;99.90;;;;;;4974135;28;20046;-78
2022/04/18 07:24:27;;;;;;;17.40;10.37;;;10.40;99.90;;;;;;5004010;28;20049;-78
2022/04/18 07:26:54;;;;;;;15.23;11.00;;;10.50;99.90;;;;;;4975517;28;20053;-78
2022/04/18 07:29:19;;;;;;;15.23;10.67;;;10.70;99.90;;;;;;4960472;28;20117;-77
2022/04/18 07:31:45;;;;;;;15.70;10.97;;;10.80;99.90;;;;;;4979110;28;20112;-77
2022/04/18 07:34:11;;;;;;;16.50;11.50;;;10.90;98.90;;;;;;4990894;28;20382;-77
2022/04/18 07:36:36;;;;;;;14.20;10.07;;;11.00;97.20;;;;;;4987499;28;20107;-77
2022/04/18 07:39:02;;;;;;;15.73;11.20;;;11.10;96.80;;;;;;4968901;28;20725;-77
2022/04/18 07:41:29;;;;;;;15.90;10.80;;;11.20;97.10;;;;;;4988604;28;20058;-77
2022/04/18 07:43:57;;;;;;;16.60;10.67;;;11.40;97.50;;;;;;4972927;28;20098;-77
2022/04/18 07:46:23;;;;;;;15.27;11.10;;;11.50;94.20;;;;;;4946424;28;20051;-77
2022/04/18 07:48:51;;;;;;;17.87;11.27;;;11.60;94.10;;;;;;4972650;28;20612;-77
2022/04/18 07:51:39;;;;;;;13.70;10.90;;;11.70;95.00;;;;;;4960497;28;20046;-77
2022/04/18 07:54:17;;;;;;;17.80;11.80;;;11.90;94.20;;;;;;4973059;28;20677;-77
2022/04/18 07:56:46;;;;;;;14.77;10.00;;;12.00;91.10;;;;;;4957630;28;20050;-77
2022/04/18 07:59:12;;;;;;;16.57;11.00;;;12.20;92.60;;;;;;4957089;28;20046;-77
2022/04/18 08:01:39;;;;;;;15.67;12.03;;;12.30;90.80;;;;;;4971945;28;20085;-77
2022/04/18 08:04:05;;;;;;;16.00;10.53;;;12.50;88.70;;;;;;4972871;28;20035;-77
2022/04/18 08:06:32;;;;;;;13.00;10.10;;;12.60;88.10;;;;;;4972663;28;20074;-77
2022/04/18 08:08:59;;;;;;;12.60;9.80;;;12.80;86.70;;;;;;4971751;28;20055;-77
2022/04/18 08:11:25;;;;;;;16.73;9.87;;;13.00;84.10;;;;;;4972034;28;20038;-77
2022/04/18 08:13:51;;;;;;;13.23;9.23;;;13.10;83.90;;;;;;4970361;28;20433;-77
2022/04/18 08:16:18;;;;;;;10.77;7.87;;;13.30;82.10;;;;;;4972273;28;20054;-77
2022/04/18 08:18:45;;;;;;;10.60;7.17;;;13.40;74.10;;;;;;4962624;28;20398;-77
2022/04/18 08:21:17;;;;;;;12.93;7.13;;;13.60;72.70;;;;;;4972064;28;20039;-77
2022/04/18 08:23:44;;;;;;;10.80;7.60;;;13.70;68.40;;;;;;4972178;28;20397;-78
2022/04/18 08:26:11;;;;;;;8.90;6.87;;;13.90;67.50;;;;;;4972048;28;20050;-77
2022/04/18 08:28:38;;;;;;;11.63;7.30;;;14.00;65.70;;;;;;4949854;28;20050;-77
2022/04/18 08:31:04;;;;;;;10.83;7.00;;;14.10;65.50;;;;;;4970196;28;20051;-77
2022/04/18 08:33:30;;;;;;;9.67;7.00;;;14.30;63.90;;;;;;4954997;28;20062;-77
2022/04/18 08:35:57;;;;;;;8.43;6.63;;;14.50;61.60;;;;;;4971080;28;20042;-77
2022/04/18 08:38:24;;;;;;;10.13;7.33;;;14.70;60.80;;;;;;4971324;28;20039;-77
2022/04/18 08:40:51;;;;;;;11.13;6.83;;;14.80;61.70;;;;;;4976460;28;20118;-77
2022/04/18 08:43:17;;;;;;;9.57;6.60;;;14.90;60.50;;;;;;4978646;28;20137;-77
2022/04/18 08:45:43;;;;;;;10.70;6.80;;;15.00;59.30;;;;;;4990547;28;20129;-78
2022/04/18 08:53:38;;;;;;;8.87;6.03;;;15.30;58.20;;;;;;5002179;28;20175;-77
2022/04/18 08:56:05;;;;;;;10.00;6.87;;;15.40;58.00;;;;;;4993867;28;20053;-78
2022/04/18 08:58:31;;;;;;;8.43;6.47;;;15.50;57.80;;;;;;4997067;28;20050;-77
2022/04/18 09:00:59;;;;;;;7.83;6.50;;;15.50;56.70;;;;;;5027433;28;20037;-78
2022/04/18 09:03:25;;;;;;;9.07;7.00;;;15.60;56.00;;;;;;4996726;28;20053;-77
2022/04/18 09:06:12;;;;;;;7.97;6.43;;;15.70;56.50;;;;;;5007009;28;20038;-77
2022/04/18 09:08:52;;;;;;;9.00;6.63;;;15.80;55.40;;;;;;5009651;28;20053;-77
2022/04/18 09:11:40;;;;;;;10.37;6.83;;;15.90;56.10;;;;;;5005981;28;20070;-78
2022/04/18 09:14:07;;;;;;;10.43;6.67;;;15.90;54.20;;;;;;4967153;28;20136;-77
2022/04/18 09:16:33;;;;;;;11.53;7.17;;;16.00;55.90;;;;;;5000673;28;20116;-77
2022/04/18 09:19:25;;;;;;;9.03;6.57;;;16.10;56.50;;;;;;4978299;28;20056;-78
2022/04/18 09:21:59;;;;;;;10.80;6.53;;;16.20;53.50;;;;;;4992563;28;20130;-78
2022/04/18 09:24:33;;;;;;;8.37;6.60;;;16.30;55.10;;;;;;4998091;28;20046;-78
2022/04/18 09:27:06;;;;;;;9.40;6.72;;;16.40;54.80;;;;;;5026538;28;20460;-78
2022/04/18 09:29:38;;;;;;;8.95;6.85;;;16.50;54.90;;;;;;5001440;28;20053;-78
2022/04/18 09:32:09;;;;;;;10.00;7.13;;;16.60;54.80;;;;;;4987034;28;20045;-78
2022/04/18 09:34:35;;;;;;;10.18;6.88;;;16.80;54.70;;;;;;5012285;28;20497;-78
2022/04/18 09:37:12;;;;;;;12.23;7.22;;;16.90;55.60;;;;;;4989479;28;20038;-78
2022/04/18 09:39:44;;;;;;;10.18;7.28;;;17.00;54.00;;;;;;4981012;28;20194;-78
2022/04/18 09:42:14;;;;;;;11.20;7.25;;;17.10;54.90;;;;;;5009838;28;20054;-78
2022/04/18 09:44:40;;;;;;;10.65;6.70;;;17.30;54.90;;;;;;4985441;28;20053;-78
2022/04/18 09:47:06;;;;;;;7.05;6.30;;;17.40;54.70;;;;;;5007627;28;20042;-78
2022/04/18 09:49:39;;;;;;;7.93;6.32;;;17.40;53.40;;;;;;4986742;28;20809;-78
2022/04/18 09:52:11;;;;;;;8.73;6.75;;;17.50;53.60;;;;;;5003510;28;20068;-78
2022/04/18 09:54:43;;;;;;;9.73;6.32;;;17.60;52.10;;;;;;5001547;28;20052;-78
2022/04/18 09:57:09;;;;;;;8.80;6.30;;;17.70;52.50;;;;;;4999771;28;20488;-78
2022/04/18 09:59:36;;;;;;;7.10;6.40;;;17.70;52.10;;;;;;4992973;28;20103;-78
2022/04/18 10:02:03;;;;;;;9.32;6.65;;;17.70;52.40;;;;;;5008840;28;20046;-78
2022/04/18 10:04:29;;;;;;;7.50;5.13;;;17.80;53.00;;;;;;4987006;28;20041;-78
2022/04/18 10:06:59;;;;;;;8.85;6.75;;;17.90;52.70;;;;;;5024983;28;20248;-78
2022/04/18 10:09:24;;;;;;;8.18;5.97;;;17.90;51.30;;;;;;5026468;28;20048;-79
2022/04/18 10:11:52;;;;;;;9.82;6.47;;;18.00;51.60;;;;;;4995026;28;20408;-78
2022/04/18 10:14:19;;;;;;;8.00;6.32;;;18.00;50.70;;;;;;4991865;28;20038;-78
2022/04/18 10:16:45;;;;;;;7.60;6.00;;;18.10;50.50;;;;;;5006378;28;20033;-78
2022/04/18 10:19:26;;;;;;;8.95;6.15;;;18.10;50.30;;;;;;5028649;28;20468;-78
2022/04/18 10:22:07;;;;;;;9.50;6.65;;;18.20;48.70;;;;;;5009012;28;20030;-78
2022/04/18 10:25:00;;;;;;;8.40;6.78;;;18.20;48.70;;;;;;5001024;28;20099;-78
2022/04/18 10:27:37;;;;;;;8.88;6.80;;;18.30;48.70;;;;;;5012478;28;20116;-78
2022/04/18 10:30:04;;;;;;;6.88;6.18;;;18.30;47.80;;;;;;5007963;28;20053;-78
2022/04/18 10:32:31;;;;;;;7.80;5.93;;;18.40;49.50;;;;;;4978895;28;20049;-77
2022/04/18 10:35:01;;;;;;;6.15;5.28;;;18.50;49.10;;;;;;4970320;28;20041;-78
2022/04/18 10:37:29;;;;;;;7.75;5.30;;;18.70;48.50;;;;;;5005117;28;20037;-78
2022/04/18 10:39:59;;;;;;;7.80;5.53;;;18.70;48.90;;;;;;4979749;28;20500;-78
2022/04/18 10:42:31;;;;;;;6.60;5.40;;;18.70;48.10;;;;;;4990668;28;20448;-77
2022/04/18 10:45:06;;;;;;;6.15;5.00;;;18.70;47.30;;;;;;4982188;28;20188;-77
2022/04/18 10:48:04;;;;;;;7.50;4.45;;;18.90;47.70;;;;;;5007222;28;20450;-78
2022/04/18 10:50:47;;;;;;;5.93;4.47;;;19.10;43.50;;;;;;5013484;28;20084;-78
2022/04/18 10:53:22;;;;;;;5.10;4.60;;;19.10;44.70;;;;;;5004883;28;20033;-77
2022/04/18 10:55:51;;;;;;;6.03;4.32;;;19.10;45.60;;;;;;5008251;28;20128;-78
2022/04/18 10:58:22;;;;;;;7.28;4.57;;;19.10;45.60;;;;;;5018649;28;20396;-78
2022/04/18 11:00:56;;;;;;;5.35;4.32;;;19.10;46.70;;;;;;5004728;28;20041;-78
2022/04/18 11:03:43;;;;;;;7.65;5.03;;;19.20;46.20;;;;;;5027603;28;20037;-78
2022/04/18 11:06:16;;;;;;;5.70;5.15;;;19.30;45.40;;;;;;5028586;28;20516;-78
2022/04/18 11:08:56;;;;;;;7.55;4.43;;;19.30;44.90;;;;;;4995497;28;20049;-77
2022/04/18 11:11:22;;;;;;;5.75;4.65;;;19.40;45.30;;;;;;5004270;28;20077;-78
2022/04/18 11:13:49;;;;;;;5.85;4.57;;;19.50;45.10;;;;;;4995598;28;20073;-78
2022/04/18 11:16:24;;;;;;;5.72;4.82;;;19.60;44.50;;;;;;5028519;28;20066;-79
2022/04/18 11:19:06;;;;;;;5.15;4.10;;;19.70;43.30;;;;;;5015806;28;20070;-78
2022/04/18 11:22:01;;;;;;;7.75;4.93;;;19.60;42.40;;;;;;5010866;28;20037;-78
2022/04/18 11:24:59;;;;;;;5.78;4.70;;;19.60;42.50;;;;;;4988258;28;20053;-78
2022/04/18 11:27:28;;;;;;;6.15;4.78;;;19.60;44.80;;;;;;4995289;28;20049;-78
2022/04/18 11:29:56;;;;;;;6.13;4.40;;;19.70;44.20;;;;;;5002355;28;20080;-78
2022/04/18 11:32:24;;;;;;;6.20;4.47;;;19.80;44.40;;;;;;5017100;28;20148;-78
2022/04/18 11:34:51;;;;;;;5.10;4.32;;;19.90;43.20;;;;;;4995464;28;20483;-78
2022/04/18 11:37:26;;;;;;;5.05;4.30;;;19.80;42.30;;;;;;4999372;28;20069;-78
2022/04/18 11:39:57;;;;;;;4.82;4.28;;;19.70;42.20;;;;;;4996115;28;20389;-78
2022/04/18 11:42:25;;;;;;;6.13;4.63;;;19.90;42.90;;;;;;4975838;28;20737;-78
2022/04/18 11:44:52;;;;;;;5.93;4.63;;;20.00;43.30;;;;;;4973310;28;20061;-79
2022/04/18 11:47:22;;;;;;;6.65;4.30;;;20.00;42.90;;;;;;4987116;28;20043;-78
2022/04/18 11:49:52;;;;;;;5.95;4.22;;;20.00;42.80;;;;;;4973355;28;20117;-78
2022/04/18 11:52:26;;;;;;;6.18;3.85;;;20.00;42.80;;;;;;4976619;28;20137;-78
2022/04/18 11:54:53;;;;;;;6.68;4.35;;;20.20;43.40;;;;;;4983310;28;20561;-78
2022/04/18 11:57:19;;;;;;;6.03;4.53;;;20.40;43.30;;;;;;4956571;28;20061;-78
2022/04/18 11:59:47;;;;;;;5.60;4.43;;;20.40;42.00;;;;;;4975830;28;20070;-78
2022/04/18 12:07:46;;;;;;;4.90;4.40;;;20.50;41.00;;;;;;4961715;28;20125;-78
2022/04/18 12:10:28;;;;;;;5.68;4.30;;;20.50;40.60;;;;;;4971836;28;20126;-79
2022/04/18 12:12:54;;;;;;;7.00;4.78;;;20.60;40.20;;;;;;4971693;28;20046;-78
2022/04/18 12:15:25;;;;;;;6.53;4.50;;;20.60;40.60;;;;;;4979684;28;20045;-79
2022/04/18 12:17:52;;;;;;;5.60;4.82;;;20.70;41.20;;;;;;4963296;28;20072;-79
2022/04/18 12:20:23;;;;;;;7.15;4.88;;;20.80;41.00;;;;;;4949811;28;20585;-78
2022/04/18 12:23:00;;;;;;;8.57;5.13;;;20.80;40.10;;;;;;4982173;28;20283;-79
2022/04/18 12:25:31;;;;;;;6.75;4.80;;;20.70;41.20;;;;;;4977651;28;20042;-78
2022/04/18 12:27:59;;;;;;;7.60;5.18;;;20.70;40.00;;;;;;4957219;28;20127;-78
2022/04/18 12:30:26;;;;;;;5.13;4.25;;;20.70;40.60;;;;;;4970405;28;20086;-79
2022/04/18 12:32:54;;;;;;;4.53;4.10;;;20.80;39.50;;;;;;4955072;28;20042;-79
2022/04/18 12:35:40;;;;;;;5.05;3.88;;;20.90;39.30;;;;;;4962872;28;20054;-79
2022/04/18 12:38:11;;;;;;;6.47;5.07;;;21.00;39.70;;;;;;4955324;28;20042;-78
2022/04/18 12:40:39;;;;;;;5.80;4.63;;;21.00;39.90;;;;;;4980043;28;20119;-79
2022/04/18 12:43:16;;;;;;;5.30;4.47;;;20.90;39.30;;;;;;4999815;28;20052;-79
2022/04/18 12:45:56;;;;;;;5.50;4.30;;;21.00;38.40;;;;;;4977630;28;20038;-79
2022/04/18 12:48:29;;;;;;;6.35;4.85;;;21.10;39.10;;;;;;5009718;28;20194;-79
2022/04/18 12:50:56;;;;;;;7.88;4.80;;;21.10;39.30;;;;;;4999657;28;20049;-78
2022/04/18 12:53:42;;;;;;;7.32;4.97;;;21.20;40.30;;;;;;5002930;28;20099;-79
2022/04/18 12:56:08;;;;;;;5.40;4.82;;;21.20;39.20;;;;;;5006619;28;20103;-79
2022/04/18 12:58:43;;;;;;;4.97;4.47;;;21.20;38.90;;;;;;4977055;28;20125;-79
2022/04/18 13:01:09;;;;;;;5.28;4.78;;;21.30;39.80;;;;;;4972830;28;20052;-79
2022/04/18 13:03:44;;;;;;;5.78;4.80;;;21.40;39.70;;;;;;4986083;28;20046;-79